Time;durP1;ratioP1;P1;durP2;ratioP2;P2;SDS_P1;SDS_P2;PMS_P1;PMS_P2;Temp;Humidity;BMP_temperature;BMP_pressure;BME280_temperature;BME280_humidity;BME280_pressure;Samples;Min_cycle;Max_cycle;Signal;HPM_P1;HPM_P2
2022/02/16 00:00:01;;;;;;;9.63;2.47;;;5.20;97.30;;;;;;5050522;28;20421;-79
2022/02/16 00:02:26;;;;;;;4.03;2.40;;;5.20;97.30;;;;;;5050994;28;20434;-79
2022/02/16 00:04:52;;;;;;;3.57;2.90;;;5.20;97.30;;;;;;5051213;28;20414;-79
2022/02/16 00:07:18;;;;;;;4.17;2.90;;;5.30;97.30;;;;;;5052228;28;20190;-79
2022/02/16 00:09:43;;;;;;;7.50;2.40;;;5.30;97.30;;;;;;5052930;28;20180;-77
2022/02/16 00:12:09;;;;;;;3.70;2.30;;;5.30;97.30;;;;;;5053800;28;20227;-79
2022/02/16 00:14:35;;;;;;;2.90;2.33;;;5.30;97.30;;;;;;5053366;28;20643;-79
2022/02/16 00:17:01;;;;;;;3.20;2.33;;;5.40;97.30;;;;;;5053470;28;20433;-79
2022/02/16 00:19:27;;;;;;;4.20;2.70;;;5.40;97.30;;;;;;5052759;28;20215;-79
2022/02/16 00:21:53;;;;;;;6.33;2.50;;;5.40;97.30;;;;;;5051836;28;20438;-79
2022/02/16 00:24:19;;;;;;;6.17;2.03;;;5.50;97.30;;;;;;5051943;28;20184;-79
2022/02/16 00:26:44;;;;;;;3.00;2.07;;;5.50;97.30;;;;;;5051605;28;20806;-79
2022/02/16 00:29:13;;;;;;;3.90;2.47;;;5.60;97.30;;;;;;5051211;28;20430;-79
2022/02/16 00:31:40;;;;;;;3.47;2.10;;;5.60;97.30;;;;;;5051081;28;20188;-79
2022/02/16 00:34:06;;;;;;;2.33;2.03;;;5.60;97.30;;;;;;5056841;28;20876;-80
2022/02/16 00:36:33;;;;;;;4.13;2.67;;;5.70;97.30;;;;;;5051153;28;20425;-79
2022/02/16 00:38:59;;;;;;;5.93;2.23;;;5.80;97.30;;;;;;5052471;28;20407;-79
2022/02/16 00:41:24;;;;;;;4.60;2.20;;;5.80;97.30;;;;;;5051094;28;20540;-79
2022/02/16 00:43:50;;;;;;;4.53;1.80;;;5.80;97.30;;;;;;5050879;28;20456;-79
2022/02/16 00:46:16;;;;;;;5.10;2.60;;;5.90;97.30;;;;;;5051624;28;20566;-80
2022/02/16 00:48:42;;;;;;;3.77;3.10;;;5.90;97.30;;;;;;5051785;28;20261;-79
2022/02/16 00:51:07;;;;;;;7.00;2.47;;;5.90;97.30;;;;;;5051017;28;20187;-79
2022/02/16 00:53:33;;;;;;;3.97;2.47;;;5.90;97.30;;;;;;5051166;28;20454;-79
2022/02/16 00:55:58;;;;;;;5.23;1.93;;;5.90;97.30;;;;;;5050590;28;20187;-79
2022/02/16 00:58:24;;;;;;;5.23;2.63;;;5.90;97.30;;;;;;5050304;28;20172;-79
2022/02/16 01:00:50;;;;;;;3.87;2.70;;;6.00;97.30;;;;;;5051652;28;20186;-82
2022/02/16 01:03:15;;;;;;;3.43;2.00;;;5.90;97.30;;;;;;5056392;28;20202;-82
2022/02/16 01:05:41;;;;;;;4.13;2.20;;;6.00;97.30;;;;;;5055136;28;20194;-82
2022/02/16 01:08:08;;;;;;;4.10;2.43;;;5.90;97.30;;;;;;5054975;28;20211;-82
2022/02/16 01:10:34;;;;;;;4.17;2.50;;;6.00;97.30;;;;;;5056386;28;20202;-82
2022/02/16 01:12:59;;;;;;;4.50;3.17;;;6.00;97.30;;;;;;5053685;28;20520;-82
2022/02/16 01:15:25;;;;;;;6.10;2.97;;;6.00;97.30;;;;;;5054411;28;20179;-82
2022/02/16 01:17:50;;;;;;;4.40;2.50;;;6.00;97.30;;;;;;5053765;28;20610;-81
2022/02/16 01:20:16;;;;;;;4.50;2.30;;;6.00;97.30;;;;;;5053833;28;20219;-82
2022/02/16 01:22:42;;;;;;;3.27;2.27;;;6.00;97.30;;;;;;5053444;28;20261;-82
2022/02/16 01:25:08;;;;;;;3.23;2.50;;;6.00;97.30;;;;;;5053702;28;20373;-82
2022/02/16 01:27:33;;;;;;;4.90;2.13;;;6.00;97.30;;;;;;5057497;28;20187;-82
2022/02/16 01:29:59;;;;;;;5.83;2.43;;;6.00;97.30;;;;;;5069450;28;20633;-82
2022/02/16 01:32:24;;;;;;;3.77;2.30;;;6.00;97.30;;;;;;5053457;28;20306;-82
2022/02/16 01:34:50;;;;;;;8.40;2.90;;;6.00;97.30;;;;;;5053381;28;20200;-82
2022/02/16 01:37:15;;;;;;;4.17;2.87;;;6.00;97.30;;;;;;5053772;28;20172;-82
2022/02/16 01:39:41;;;;;;;3.53;2.60;;;6.00;97.30;;;;;;5053596;28;20168;-82
2022/02/16 01:42:07;;;;;;;2.90;2.40;;;6.00;97.30;;;;;;5053360;28;20202;-82
2022/02/16 01:44:32;;;;;;;3.43;2.53;;;6.00;97.30;;;;;;5053617;28;20265;-82
2022/02/16 01:47:04;;;;;;;5.07;2.53;;;6.00;97.30;;;;;;5052881;28;20342;-82
2022/02/16 01:49:35;;;;;;;4.70;2.80;;;6.00;97.30;;;;;;5053485;28;20183;-82
2022/02/16 01:52:01;;;;;;;4.60;2.53;;;6.00;97.30;;;;;;5053917;28;20488;-82
2022/02/16 01:54:27;;;;;;;4.23;3.00;;;6.00;97.30;;;;;;5053145;28;20925;-83
2022/02/16 01:56:54;;;;;;;3.17;2.27;;;6.00;97.30;;;;;;5054507;28;20446;-82
2022/02/16 01:59:24;;;;;;;3.53;2.47;;;6.00;97.30;;;;;;5054649;28;20172;-82
2022/02/16 02:01:50;;;;;;;3.80;2.30;;;6.00;97.30;;;;;;5057907;28;21010;-83
2022/02/16 02:04:17;;;;;;;3.13;2.40;;;6.10;97.30;;;;;;5057768;28;20884;-82
2022/02/16 02:06:43;;;;;;;4.33;2.23;;;6.10;97.30;;;;;;5057326;28;20414;-82
2022/02/16 02:09:10;;;;;;;4.80;2.60;;;6.10;97.30;;;;;;5055269;28;20448;-82
2022/02/16 02:11:36;;;;;;;4.13;2.33;;;6.10;97.30;;;;;;5055942;28;20476;-82
2022/02/16 02:14:04;;;;;;;7.60;2.47;;;6.10;97.30;;;;;;5055838;28;20478;-79
2022/02/16 02:16:30;;;;;;;6.53;2.57;;;6.10;97.30;;;;;;5055778;28;20413;-79
2022/02/16 02:18:57;;;;;;;3.50;2.40;;;6.10;97.30;;;;;;5054095;28;20509;-80
2022/02/16 02:21:23;;;;;;;4.53;2.30;;;6.10;97.30;;;;;;5053915;28;20425;-79
2022/02/16 02:23:50;;;;;;;5.33;2.63;;;6.10;97.30;;;;;;5054382;28;20783;-80
2022/02/16 02:26:17;;;;;;;3.77;1.73;;;6.10;97.30;;;;;;5055403;28;20922;-79
2022/02/16 02:28:43;;;;;;;4.97;2.50;;;6.10;97.30;;;;;;5053491;28;20450;-79
2022/02/16 02:31:09;;;;;;;4.87;2.33;;;6.20;97.30;;;;;;5053654;28;20521;-80
2022/02/16 02:33:37;;;;;;;5.03;2.70;;;6.20;97.30;;;;;;5055247;28;20489;-79
2022/02/16 02:36:05;;;;;;;7.60;2.50;;;6.20;97.30;;;;;;5053445;28;20199;-79
2022/02/16 02:38:34;;;;;;;4.07;2.47;;;6.20;97.30;;;;;;5054321;28;20410;-79
2022/02/16 02:41:04;;;;;;;3.73;2.10;;;6.20;97.30;;;;;;5053596;28;20416;-79
2022/02/16 02:43:31;;;;;;;2.60;1.80;;;6.20;97.30;;;;;;5055253;28;20442;-79
2022/02/16 02:45:57;;;;;;;2.80;2.17;;;6.30;97.30;;;;;;5053524;28;20418;-80
2022/02/16 02:48:25;;;;;;;4.87;2.20;;;6.30;97.30;;;;;;5053566;28;20932;-79
2022/02/16 02:50:51;;;;;;;3.70;2.50;;;6.30;97.30;;;;;;5053558;28;20510;-79
2022/02/16 02:53:17;;;;;;;4.60;2.33;;;6.30;97.30;;;;;;5055231;28;20493;-80
2022/02/16 02:55:43;;;;;;;2.77;2.00;;;6.30;97.30;;;;;;5053469;28;20411;-81
2022/02/16 02:58:09;;;;;;;4.50;2.07;;;6.30;97.30;;;;;;5054055;28;20183;-82
2022/02/16 03:00:35;;;;;;;3.37;1.97;;;6.30;97.30;;;;;;5055053;28;20170;-81
2022/02/16 03:03:00;;;;;;;4.73;2.20;;;6.30;97.30;;;;;;5053733;28;20430;-82
2022/02/16 03:05:26;;;;;;;3.47;2.13;;;6.20;97.30;;;;;;5052777;28;20623;-81
2022/02/16 03:07:51;;;;;;;2.47;2.27;;;6.20;97.30;;;;;;5053674;28;20175;-81
2022/02/16 03:10:17;;;;;;;3.20;2.27;;;6.20;97.30;;;;;;5053092;28;20204;-82
2022/02/16 03:12:43;;;;;;;2.70;2.17;;;6.30;97.30;;;;;;5053102;28;20287;-81
2022/02/16 03:15:09;;;;;;;4.60;2.03;;;6.30;97.30;;;;;;5054653;28;20549;-81
2022/02/16 03:17:35;;;;;;;3.20;2.50;;;6.30;97.30;;;;;;5053157;28;20660;-81
2022/02/16 03:20:01;;;;;;;2.80;2.30;;;6.30;97.30;;;;;;5053176;28;20422;-81
2022/02/16 03:22:27;;;;;;;6.67;2.30;;;6.30;97.30;;;;;;5052905;28;20509;-81
2022/02/16 03:24:53;;;;;;;5.53;2.10;;;6.20;97.30;;;;;;5053674;28;20493;-82
2022/02/16 03:27:18;;;;;;;3.00;2.07;;;6.20;97.30;;;;;;5052958;28;20180;-81
2022/02/16 03:29:44;;;;;;;4.90;2.20;;;6.20;97.30;;;;;;5053733;28;20217;-81
2022/02/16 03:32:09;;;;;;;3.10;2.03;;;6.20;97.30;;;;;;5053751;28;20196;-81
2022/02/16 03:34:35;;;;;;;4.00;2.17;;;6.20;97.30;;;;;;5055992;28;20665;-82
2022/02/16 03:37:00;;;;;;;4.67;2.50;;;6.20;97.30;;;;;;5052854;28;20204;-82
2022/02/16 03:39:26;;;;;;;1.83;1.63;;;6.20;97.30;;;;;;5053328;28;20371;-81
2022/02/16 03:41:52;;;;;;;2.70;1.83;;;6.20;97.30;;;;;;5052946;28;20195;-81
2022/02/16 03:44:17;;;;;;;2.97;1.70;;;6.20;97.30;;;;;;5053515;28;20171;-81
2022/02/16 03:46:43;;;;;;;2.20;1.90;;;6.20;97.30;;;;;;5053664;28;20184;-81
2022/02/16 03:49:09;;;;;;;3.90;2.00;;;6.20;97.30;;;;;;5053109;28;20455;-82
2022/02/16 03:51:34;;;;;;;3.27;1.93;;;6.30;97.30;;;;;;5052464;28;20454;-80
2022/02/16 03:54:00;;;;;;;5.70;2.00;;;6.30;97.30;;;;;;5052352;28;20579;-80
2022/02/16 03:56:26;;;;;;;2.97;1.80;;;6.30;97.30;;;;;;5052546;28;20331;-81
2022/02/16 03:58:52;;;;;;;3.60;2.30;;;6.30;97.30;;;;;;5053263;28;20176;-83
2022/02/16 04:01:17;;;;;;;2.80;2.13;;;6.30;97.30;;;;;;5053677;28;20206;-81
2022/02/16 04:03:43;;;;;;;2.07;1.93;;;6.30;97.30;;;;;;5052743;28;20219;-82
2022/02/16 04:06:09;;;;;;;1.67;1.20;;;6.30;97.30;;;;;;5052336;28;20737;-83
2022/02/16 04:08:34;;;;;;;3.67;2.17;;;6.30;97.30;;;;;;5052827;28;20233;-81
2022/02/16 04:11:00;;;;;;;2.53;1.60;;;6.30;97.30;;;;;;5053790;28;20191;-82
2022/02/16 04:13:25;;;;;;;2.53;1.90;;;6.30;97.30;;;;;;5052318;28;20318;-82
2022/02/16 04:15:51;;;;;;;4.30;1.47;;;6.20;97.30;;;;;;5052097;28;20176;-81
2022/02/16 04:18:17;;;;;;;2.87;1.83;;;6.20;97.30;;;;;;5052944;28;20184;-80
2022/02/16 04:20:42;;;;;;;2.27;1.83;;;6.30;97.30;;;;;;5052088;28;20322;-81
2022/02/16 04:23:12;;;;;;;2.37;1.60;;;6.30;97.30;;;;;;5052177;28;20775;-81
2022/02/16 04:25:38;;;;;;;4.57;1.80;;;6.30;97.30;;;;;;5052445;28;20180;-82
2022/02/16 04:28:04;;;;;;;2.10;1.50;;;6.20;97.30;;;;;;5053632;28;20418;-80
2022/02/16 04:30:34;;;;;;;3.00;1.97;;;6.30;97.30;;;;;;5053243;28;20619;-81
2022/02/16 04:32:59;;;;;;;2.87;1.63;;;6.30;97.30;;;;;;5051723;28;20438;-80
2022/02/16 04:35:25;;;;;;;1.93;1.40;;;6.30;97.30;;;;;;5051317;28;20437;-81
2022/02/16 04:37:51;;;;;;;1.70;1.43;;;6.30;97.30;;;;;;5051775;28;20233;-82
2022/02/16 04:40:17;;;;;;;1.30;1.20;;;6.30;97.30;;;;;;5051375;28;20433;-81
2022/02/16 04:42:43;;;;;;;2.00;1.60;;;6.40;97.30;;;;;;5051458;28;20199;-82
2022/02/16 04:45:09;;;;;;;2.43;1.50;;;6.40;97.30;;;;;;5053582;28;20425;-81
2022/02/16 04:47:35;;;;;;;5.10;1.40;;;6.30;97.30;;;;;;5051941;28;20840;-81
2022/02/16 04:50:01;;;;;;;1.70;1.27;;;6.30;97.30;;;;;;5051839;28;20506;-81
2022/02/16 04:52:34;;;;;;;1.80;1.30;;;6.30;97.30;;;;;;5052284;28;20191;-79
2022/02/16 04:55:06;;;;;;;3.03;1.20;;;6.30;97.30;;;;;;5049421;28;20246;-79
2022/02/16 04:57:31;;;;;;;1.30;1.20;;;6.30;97.30;;;;;;5050057;28;21000;-79
2022/02/16 04:59:58;;;;;;;1.80;1.40;;;6.30;97.30;;;;;;5050179;28;20505;-79
2022/02/16 05:02:27;;;;;;;2.00;1.67;;;6.30;97.30;;;;;;5050345;28;20935;-79
2022/02/16 05:04:54;;;;;;;2.07;1.70;;;6.30;97.30;;;;;;5051589;28;20426;-79
2022/02/16 05:07:20;;;;;;;2.43;1.40;;;6.40;97.30;;;;;;5051375;28;20792;-79
2022/02/16 05:09:46;;;;;;;1.67;1.10;;;6.30;97.30;;;;;;5050855;28;20520;-80
2022/02/16 05:12:12;;;;;;;1.30;1.20;;;6.30;97.30;;;;;;5049934;28;20884;-80
2022/02/16 05:14:38;;;;;;;3.80;1.53;;;6.30;97.30;;;;;;5049783;28;20297;-79
2022/02/16 05:17:03;;;;;;;1.67;1.10;;;6.30;97.30;;;;;;5050291;28;20182;-79
2022/02/16 05:19:29;;;;;;;1.50;1.20;;;6.30;97.30;;;;;;5049905;28;20793;-79
2022/02/16 05:21:55;;;;;;;1.43;1.10;;;6.30;97.30;;;;;;5050061;28;20571;-80
2022/02/16 05:24:21;;;;;;;2.37;1.33;;;6.30;97.30;;;;;;5050544;28;20429;-80
2022/02/16 05:26:47;;;;;;;2.10;1.17;;;6.30;97.30;;;;;;5050263;28;20596;-79
2022/02/16 05:29:12;;;;;;;1.13;1.03;;;6.30;97.30;;;;;;5049762;28;20187;-80
2022/02/16 05:31:38;;;;;;;1.10;1.10;;;6.30;97.30;;;;;;5049695;28;20171;-79
2022/02/16 05:34:04;;;;;;;2.23;1.30;;;6.20;97.30;;;;;;5049014;28;20254;-79
2022/02/16 05:36:29;;;;;;;1.30;1.20;;;6.20;97.30;;;;;;5052722;28;20544;-79
2022/02/16 05:38:55;;;;;;;1.30;1.20;;;6.20;97.30;;;;;;5053531;28;20422;-79
2022/02/16 05:41:21;;;;;;;1.10;1.00;;;6.20;97.30;;;;;;5053907;28;20175;-80
2022/02/16 05:43:47;;;;;;;1.20;1.10;;;6.30;97.30;;;;;;5054177;28;20226;-79
2022/02/16 05:46:12;;;;;;;1.40;1.20;;;6.30;97.30;;;;;;5053699;28;20187;-79
2022/02/16 05:48:38;;;;;;;1.57;1.50;;;6.30;97.30;;;;;;5053913;28;20513;-79
2022/02/16 05:51:04;;;;;;;0.80;0.80;;;6.20;97.30;;;;;;5053158;28;20517;-79
2022/02/16 05:53:29;;;;;;;1.13;1.10;;;6.20;97.30;;;;;;5053558;28;20250;-79
2022/02/16 05:55:55;;;;;;;1.10;1.00;;;6.20;97.30;;;;;;5053902;28;20410;-79
2022/02/16 05:58:21;;;;;;;1.20;1.00;;;6.20;97.30;;;;;;5053155;28;20243;-79
2022/02/16 06:00:46;;;;;;;1.27;0.90;;;6.20;97.30;;;;;;5053914;28;20475;-80
2022/02/16 06:03:12;;;;;;;1.30;1.10;;;6.20;97.30;;;;;;5053608;28;20666;-79
2022/02/16 06:05:38;;;;;;;1.13;1.13;;;6.20;97.30;;;;;;5052999;28;20262;-79
2022/02/16 06:08:04;;;;;;;1.47;1.27;;;6.20;97.30;;;;;;5053563;28;20184;-79
2022/02/16 06:10:30;;;;;;;1.93;1.83;;;6.20;97.30;;;;;;5052902;28;20638;-79
2022/02/16 06:12:58;;;;;;;1.30;1.20;;;6.10;97.30;;;;;;5052940;28;20199;-80
2022/02/16 06:15:24;;;;;;;1.20;1.10;;;6.10;97.30;;;;;;5051961;28;20797;-80
2022/02/16 06:17:50;;;;;;;1.20;1.13;;;6.10;97.30;;;;;;5052040;28;20966;-79
2022/02/16 06:20:15;;;;;;;1.67;1.17;;;6.10;97.30;;;;;;5052040;28;20529;-79
2022/02/16 06:22:41;;;;;;;1.57;1.10;;;6.10;97.30;;;;;;5051698;28;20200;-80
2022/02/16 06:25:08;;;;;;;3.27;1.30;;;6.10;97.30;;;;;;5053288;28;20265;-79
2022/02/16 06:27:34;;;;;;;1.30;1.23;;;6.10;97.30;;;;;;5051869;28;20172;-80
2022/02/16 06:30:01;;;;;;;1.20;1.10;;;6.10;97.30;;;;;;5052004;28;20450;-80
2022/02/16 06:32:27;;;;;;;1.20;1.00;;;6.10;97.30;;;;;;5052750;28;21030;-79
2022/02/16 06:34:53;;;;;;;2.70;0.87;;;6.00;97.30;;;;;;5052914;28;20454;-80
2022/02/16 06:37:18;;;;;;;1.90;1.03;;;6.00;97.30;;;;;;5055572;28;20414;-80
2022/02/16 06:39:44;;;;;;;1.23;1.07;;;6.00;97.30;;;;;;5053881;28;20183;-80
2022/02/16 06:42:11;;;;;;;1.73;1.33;;;6.00;97.30;;;;;;5056536;28;20306;-79
2022/02/16 06:44:37;;;;;;;2.07;1.00;;;6.00;97.30;;;;;;5056353;28;20390;-80
2022/02/16 06:47:03;;;;;;;1.27;0.97;;;6.00;97.30;;;;;;5053928;28;20786;-80
2022/02/16 06:49:28;;;;;;;1.47;1.10;;;6.00;97.30;;;;;;5055233;28;20187;-80
2022/02/16 06:51:54;;;;;;;1.40;1.33;;;6.00;97.30;;;;;;5055204;28;20434;-80
2022/02/16 06:54:20;;;;;;;2.70;1.43;;;6.00;97.30;;;;;;5055177;28;20214;-79
2022/02/16 06:56:46;;;;;;;2.07;1.20;;;6.00;97.30;;;;;;5055417;28;20505;-80
2022/02/16 06:59:12;;;;;;;2.30;1.17;;;6.00;97.30;;;;;;5055239;28;20226;-80
2022/02/16 07:01:38;;;;;;;1.90;1.37;;;6.00;97.30;;;;;;5056328;28;20422;-80
2022/02/16 07:04:04;;;;;;;3.30;1.30;;;6.00;97.30;;;;;;5054452;28;20183;-80
2022/02/16 07:06:31;;;;;;;1.10;1.00;;;6.00;97.30;;;;;;5055258;28;21090;-80
2022/02/16 07:08:57;;;;;;;1.17;1.10;;;6.00;97.30;;;;;;5054392;28;20448;-80
2022/02/16 07:11:23;;;;;;;1.47;1.33;;;6.00;97.30;;;;;;5055616;28;20415;-79
2022/02/16 07:13:48;;;;;;;4.00;1.60;;;6.00;97.30;;;;;;5056220;28;20867;-80
2022/02/16 07:16:14;;;;;;;3.10;1.27;;;6.00;97.30;;;;;;5054455;28;20654;-79
2022/02/16 07:18:40;;;;;;;2.10;1.13;;;6.00;97.30;;;;;;5053930;28;20546;-80
2022/02/16 07:21:08;;;;;;;12.90;1.63;;;6.00;97.30;;;;;;5054840;28;20179;-80
2022/02/16 07:23:35;;;;;;;2.03;1.53;;;6.00;97.30;;;;;;5054133;28;20445;-80
2022/02/16 07:26:00;;;;;;;1.23;1.20;;;6.10;97.30;;;;;;5054564;28;20610;-79
2022/02/16 07:28:26;;;;;;;1.20;1.13;;;6.10;97.30;;;;;;5055563;28;20417;-80
2022/02/16 07:30:52;;;;;;;2.30;1.40;;;6.10;97.30;;;;;;5053909;28;20233;-80
2022/02/16 07:33:17;;;;;;;2.23;1.43;;;6.10;97.30;;;;;;5053985;28;20200;-80
2022/02/16 07:35:43;;;;;;;1.70;1.20;;;6.00;97.30;;;;;;5053965;28;20200;-82
2022/02/16 07:38:09;;;;;;;1.10;1.10;;;6.00;97.30;;;;;;5054408;28;20186;-81
2022/02/16 07:40:34;;;;;;;1.37;1.33;;;6.00;97.30;;;;;;5053772;28;20418;-80
2022/02/16 07:43:00;;;;;;;1.10;1.07;;;6.00;97.30;;;;;;5053994;28;20203;-80
2022/02/16 07:45:26;;;;;;;1.60;1.17;;;6.00;97.30;;;;;;5054861;28;20183;-80
2022/02/16 07:47:51;;;;;;;1.53;1.30;;;6.00;97.30;;;;;;5060339;28;20174;-81
2022/02/16 07:50:17;;;;;;;1.23;1.20;;;6.00;97.30;;;;;;5073564;28;20198;-80
2022/02/16 07:52:42;;;;;;;1.97;1.60;;;6.00;97.30;;;;;;5073673;28;20746;-80
2022/02/16 07:55:08;;;;;;;1.07;1.03;;;6.00;97.30;;;;;;5068757;28;20298;-80
2022/02/16 07:57:34;;;;;;;1.57;1.20;;;6.00;97.30;;;;;;5052913;28;20174;-80
2022/02/16 08:00:00;;;;;;;1.77;1.37;;;6.00;97.30;;;;;;5052869;28;20172;-80
2022/02/16 08:02:26;;;;;;;2.20;1.30;;;6.10;97.30;;;;;;5052867;28;20242;-80
2022/02/16 08:04:51;;;;;;;3.27;0.87;;;6.10;97.30;;;;;;5052735;28;20462;-80
2022/02/16 08:07:17;;;;;;;2.57;1.10;;;6.10;97.30;;;;;;5051868;28;20245;-81
2022/02/16 08:09:42;;;;;;;1.10;1.00;;;6.10;97.30;;;;;;5052992;28;20175;-83
2022/02/16 08:12:08;;;;;;;1.27;1.13;;;6.10;97.30;;;;;;5056064;28;20195;-83
2022/02/16 08:14:34;;;;;;;1.10;1.00;;;6.20;97.30;;;;;;5053943;28;20235;-82
2022/02/16 08:17:00;;;;;;;2.00;1.00;;;6.20;97.30;;;;;;5055577;28;20774;-83
2022/02/16 08:19:26;;;;;;;2.60;1.20;;;6.20;97.30;;;;;;5054085;28;20366;-83
2022/02/16 08:21:55;;;;;;;1.30;1.20;;;6.20;97.30;;;;;;5053391;28;20426;-82
2022/02/16 08:24:21;;;;;;;1.57;0.90;;;6.20;97.30;;;;;;5054335;28;20190;-83
2022/02/16 08:26:47;;;;;;;1.20;1.10;;;6.20;97.30;;;;;;5053984;28;20410;-83
2022/02/16 08:29:14;;;;;;;1.20;1.10;;;6.20;97.30;;;;;;5054442;28;20460;-83
2022/02/16 08:31:41;;;;;;;1.73;1.13;;;6.20;97.30;;;;;;5052597;28;20687;-82
2022/02/16 08:34:07;;;;;;;1.90;1.27;;;6.20;97.30;;;;;;5053082;28;20756;-83
2022/02/16 08:36:33;;;;;;;2.60;1.57;;;6.30;97.30;;;;;;5053224;28;20410;-83
2022/02/16 08:38:58;;;;;;;1.27;1.17;;;6.30;97.30;;;;;;5053273;28;20950;-82
2022/02/16 08:41:24;;;;;;;1.30;1.20;;;6.30;97.30;;;;;;5052565;28;20179;-83
2022/02/16 08:43:50;;;;;;;2.60;1.20;;;6.30;97.30;;;;;;5052677;28;20183;-80
2022/02/16 08:46:15;;;;;;;1.30;1.07;;;6.30;97.30;;;;;;5052760;28;20176;-80
2022/02/16 08:48:41;;;;;;;2.27;1.43;;;6.40;97.30;;;;;;5052818;28;20180;-80
2022/02/16 08:51:07;;;;;;;1.20;1.07;;;6.40;97.30;;;;;;5052122;28;20190;-80
2022/02/16 08:53:32;;;;;;;1.83;1.20;;;6.50;97.30;;;;;;5052159;28;20497;-80
2022/02/16 08:55:59;;;;;;;1.93;1.10;;;6.50;97.30;;;;;;5052034;28;20510;-80
2022/02/16 08:58:26;;;;;;;1.00;0.90;;;6.60;97.30;;;;;;5052280;28;20175;-81
2022/02/16 09:00:51;;;;;;;1.70;1.40;;;6.60;97.30;;;;;;5052798;28;20437;-80
2022/02/16 09:03:18;;;;;;;1.53;1.00;;;6.70;97.30;;;;;;5051602;28;20956;-80
2022/02/16 09:05:44;;;;;;;1.10;1.00;;;6.70;97.30;;;;;;5052002;28;20650;-79
2022/02/16 09:08:10;;;;;;;1.20;1.20;;;6.70;97.30;;;;;;5051234;28;20418;-80
2022/02/16 09:10:35;;;;;;;1.77;1.20;;;6.80;97.30;;;;;;5051166;28;20179;-81
2022/02/16 09:13:01;;;;;;;1.43;1.20;;;6.80;97.30;;;;;;5050792;28;20247;-79
2022/02/16 09:15:27;;;;;;;2.03;1.50;;;6.80;97.30;;;;;;5052340;28;20188;-80
2022/02/16 09:17:54;;;;;;;1.30;1.20;;;6.90;97.30;;;;;;5052065;28;20944;-80
2022/02/16 09:20:19;;;;;;;1.10;1.00;;;7.00;97.30;;;;;;5053191;28;20661;-79
2022/02/16 09:22:46;;;;;;;0.93;0.93;;;7.00;97.30;;;;;;5052099;28;20442;-80
2022/02/16 09:25:11;;;;;;;1.13;1.00;;;7.10;97.30;;;;;;5051589;28;20183;-81
2022/02/16 09:27:37;;;;;;;1.20;1.10;;;7.10;97.30;;;;;;5052669;28;20851;-80
2022/02/16 09:30:04;;;;;;;2.13;1.17;;;7.10;97.30;;;;;;5052064;28;20422;-80
2022/02/16 09:32:30;;;;;;;2.07;1.20;;;7.20;97.30;;;;;;5052223;28;20204;-79
2022/02/16 09:34:55;;;;;;;1.47;1.37;;;7.20;97.30;;;;;;5051525;28;20847;-81
2022/02/16 09:37:21;;;;;;;1.20;1.10;;;7.20;97.30;;;;;;5052475;28;20184;-81
2022/02/16 09:39:47;;;;;;;2.00;1.50;;;7.20;97.30;;;;;;5051296;28;20179;-80
2022/02/16 09:42:13;;;;;;;1.10;1.00;;;7.20;97.30;;;;;;5051238;28;20430;-80
2022/02/16 09:44:45;;;;;;;2.50;1.20;;;7.20;97.30;;;;;;5052289;28;20179;-80
2022/02/16 09:47:12;;;;;;;1.57;1.10;;;7.20;97.30;;;;;;5051881;28;20419;-80
2022/02/16 09:49:38;;;;;;;1.30;1.10;;;7.30;97.30;;;;;;5051032;28;20584;-80
2022/02/16 09:52:05;;;;;;;1.73;1.40;;;7.30;97.30;;;;;;5051356;28;20491;-79
2022/02/16 09:54:32;;;;;;;1.20;1.10;;;7.30;97.30;;;;;;5050867;28;21022;-80
2022/02/16 09:56:57;;;;;;;1.30;1.00;;;7.30;97.30;;;;;;5053188;28;20454;-80
2022/02/16 09:59:23;;;;;;;1.67;1.13;;;7.40;97.30;;;;;;5051665;28;20417;-80
2022/02/16 10:01:58;;;;;;;1.10;1.00;;;7.40;97.30;;;;;;5051369;28;20273;-80
2022/02/16 10:04:29;;;;;;;1.27;1.13;;;7.50;97.30;;;;;;5051509;28;20182;-80
2022/02/16 10:06:55;;;;;;;1.20;1.07;;;7.50;97.30;;;;;;5052597;28;20426;-81
2022/02/16 10:09:40;;;;;;;1.60;1.03;;;7.50;97.30;;;;;;5051889;28;20917;-81
2022/02/16 10:12:07;;;;;;;1.10;1.00;;;7.60;97.30;;;;;;5051223;28;20202;-80
2022/02/16 10:14:36;;;;;;;2.70;1.10;;;7.60;97.30;;;;;;5050540;28;20556;-80
2022/02/16 10:17:20;;;;;;;1.43;1.30;;;7.60;97.30;;;;;;5051379;28;20479;-81
2022/02/16 10:19:51;;;;;;;2.13;1.10;;;7.60;97.30;;;;;;5035345;28;20808;-80
2022/02/16 10:22:19;;;;;;;1.37;1.10;;;7.70;97.30;;;;;;5053350;28;20480;-80
2022/02/16 10:24:45;;;;;;;1.20;1.10;;;7.70;97.30;;;;;;5054842;28;20414;-80
2022/02/16 10:27:12;;;;;;;3.53;1.20;;;7.70;97.30;;;;;;5054625;28;20421;-79
2022/02/16 10:29:39;;;;;;;1.27;1.17;;;7.70;97.30;;;;;;5054693;28;20426;-80
2022/02/16 10:32:05;;;;;;;1.40;1.30;;;7.80;97.30;;;;;;5054387;28;20472;-80
2022/02/16 10:34:50;;;;;;;4.67;1.37;;;7.90;97.30;;;;;;5054274;28;20468;-80
2022/02/16 10:37:17;;;;;;;1.40;1.30;;;8.00;97.30;;;;;;5054581;28;20415;-81
2022/02/16 10:39:59;;;;;;;1.27;1.10;;;8.10;97.30;;;;;;5054755;28;20783;-80
2022/02/16 10:42:24;;;;;;;1.23;1.20;;;8.20;97.30;;;;;;5054980;28;20487;-82
2022/02/16 10:45:04;;;;;;;1.63;1.30;;;8.30;97.30;;;;;;5055688;28;20418;-82
2022/02/16 10:47:48;;;;;;;1.70;1.00;;;8.40;97.30;;;;;;5054901;28;20215;-82
2022/02/16 10:50:14;;;;;;;1.10;1.10;;;8.40;97.30;;;;;;5054874;28;20447;-82
2022/02/16 10:52:49;;;;;;;1.10;1.00;;;8.60;97.30;;;;;;5056044;28;20430;-82
2022/02/16 10:55:15;;;;;;;1.10;1.10;;;8.70;97.30;;;;;;5054783;28;20206;-82
2022/02/16 10:57:40;;;;;;;1.10;1.07;;;8.80;97.30;;;;;;5054888;28;20822;-82
2022/02/16 11:00:06;;;;;;;1.20;1.20;;;8.80;97.30;;;;;;5057151;28;20176;-82
2022/02/16 11:02:34;;;;;;;1.10;1.00;;;8.70;97.30;;;;;;5056055;28;20623;-82
2022/02/16 11:05:02;;;;;;;1.60;1.10;;;8.80;97.30;;;;;;5054893;28;20457;-83
2022/02/16 11:07:32;;;;;;;3.23;1.10;;;8.80;97.30;;;;;;5055736;28;20526;-82
2022/02/16 11:10:01;;;;;;;1.37;1.27;;;8.80;97.30;;;;;;5054872;28;20832;-82
2022/02/16 11:12:26;;;;;;;1.00;0.90;;;8.80;97.30;;;;;;5055633;28;20503;-83
2022/02/16 11:14:53;;;;;;;1.07;1.07;;;8.70;97.30;;;;;;5056375;28;20482;-82
2022/02/16 11:17:23;;;;;;;1.63;1.30;;;8.70;97.30;;;;;;5055914;28;20191;-82
2022/02/16 11:19:48;;;;;;;2.33;1.30;;;8.60;97.30;;;;;;5054650;28;20418;-82
2022/02/16 11:22:19;;;;;;;2.07;1.37;;;8.60;97.30;;;;;;5054838;28;20434;-82
2022/02/16 11:24:47;;;;;;;1.33;1.20;;;8.60;97.30;;;;;;5054250;28;20392;-83
2022/02/16 11:27:29;;;;;;;1.87;1.03;;;8.60;97.30;;;;;;5054626;28;20425;-82
2022/02/16 11:29:58;;;;;;;1.57;1.13;;;8.60;97.30;;;;;;5047331;28;20431;-82
2022/02/16 11:32:37;;;;;;;1.47;1.10;;;8.60;97.30;;;;;;5052794;28;20456;-83
2022/02/16 11:35:21;;;;;;;1.20;1.20;;;8.50;97.30;;;;;;5056268;28;20469;-82
2022/02/16 11:38:10;;;;;;;1.23;1.10;;;8.50;97.30;;;;;;5056568;28;20482;-83
2022/02/16 11:40:46;;;;;;;1.87;1.30;;;8.40;97.30;;;;;;5056537;28;20505;-84
2022/02/16 11:43:14;;;;;;;1.20;1.10;;;8.40;97.30;;;;;;5055343;28;20430;-81
2022/02/16 11:45:46;;;;;;;1.43;1.10;;;8.40;97.30;;;;;;5055744;28;20426;-82
2022/02/16 11:48:40;;;;;;;2.80;1.20;;;8.40;97.30;;;;;;5053924;28;20418;-81
2022/02/16 11:51:39;;;;;;;1.77;1.60;;;8.40;97.30;;;;;;5053895;28;20448;-81
2022/02/16 11:54:44;;;;;;;1.13;1.10;;;8.50;97.30;;;;;;5033222;28;20493;-80
2022/02/16 11:57:36;;;;;;;1.30;1.10;;;8.50;97.30;;;;;;5053525;28;20411;-81
2022/02/16 12:00:25;;;;;;;1.07;0.90;;;8.70;97.30;;;;;;5054052;28;20414;-82
2022/02/16 12:02:57;;;;;;;1.73;1.17;;;8.80;97.30;;;;;;5054274;28;20433;-81
2022/02/16 12:05:58;;;;;;;1.50;1.10;;;8.80;97.30;;;;;;5053222;28;20417;-81
2022/02/16 12:08:48;;;;;;;1.20;1.10;;;8.80;97.30;;;;;;5054391;28;20418;-82
2022/02/16 12:11:20;;;;;;;1.43;0.97;;;8.80;97.30;;;;;;5054034;28;20410;-82
2022/02/16 12:13:49;;;;;;;1.13;1.10;;;8.80;97.30;;;;;;5053110;28;20504;-83
2022/02/16 12:16:21;;;;;;;1.00;1.00;;;8.90;97.30;;;;;;5053670;28;20437;-83
2022/02/16 12:18:49;;;;;;;1.93;1.23;;;8.90;97.30;;;;;;5054465;28;20407;-82
2022/02/16 12:21:42;;;;;;;1.93;1.30;;;8.90;97.30;;;;;;5052975;28;20415;-81
2022/02/16 12:24:14;;;;;;;1.20;1.10;;;8.90;97.30;;;;;;5051347;28;20422;-83
2022/02/16 12:26:42;;;;;;;1.03;1.00;;;9.00;97.30;;;;;;5053607;28;20510;-83
2022/02/16 12:29:16;;;;;;;1.20;1.10;;;9.00;97.30;;;;;;5054680;28;20415;-81
2022/02/16 12:31:50;;;;;;;2.90;1.10;;;9.00;97.30;;;;;;5052924;28;20422;-84
2022/02/16 12:34:18;;;;;;;1.93;1.00;;;9.10;97.30;;;;;;5053822;28;20509;-83
2022/02/16 12:36:53;;;;;;;1.00;0.90;;;9.20;97.30;;;;;;5053405;28;20407;-82
2022/02/16 12:39:20;;;;;;;2.90;0.90;;;9.20;97.30;;;;;;5053589;28;20410;-80
2022/02/16 12:41:49;;;;;;;5.60;1.50;;;9.30;97.30;;;;;;5054089;28;20426;-80
2022/02/16 12:44:20;;;;;;;4.00;1.00;;;9.40;97.30;;;;;;5051907;28;20441;-82
2022/02/16 12:46:50;;;;;;;3.90;1.20;;;9.50;97.30;;;;;;5052355;28;20528;-80
2022/02/16 12:49:22;;;;;;;1.20;1.10;;;9.50;97.30;;;;;;5053058;28;20418;-80
2022/02/16 12:51:50;;;;;;;1.10;1.07;;;9.60;97.30;;;;;;5054753;28;20438;-81
2022/02/16 12:54:19;;;;;;;2.73;0.90;;;9.50;97.30;;;;;;5053451;28;21052;-79
2022/02/16 12:56:53;;;;;;;1.73;1.10;;;9.50;97.30;;;;;;5054901;28;20497;-80
2022/02/16 12:59:26;;;;;;;1.40;1.30;;;9.50;97.30;;;;;;5053492;28;20453;-80